createdAt,value
2023-03-04T00:00:36.821Z,97593.19
2023-03-04T00:03:03.620Z,97583.41
2023-03-04T00:05:31.163Z,97594.75
2023-03-04T00:07:57.824Z,97599.44
2023-03-04T00:10:24.454Z,97600.69
2023-03-04T00:12:51.065Z,97603.41
2023-03-04T00:15:17.698Z,97609.34
2023-03-04T00:17:46.171Z,97605.19
2023-03-04T00:20:13.632Z,97603.00
2023-03-04T00:22:40.322Z,97604.97
2023-03-04T00:25:07.473Z,97601.34
2023-03-04T00:27:34.219Z,97603.31
2023-03-04T00:30:00.875Z,97599.91
2023-03-04T00:32:27.639Z,97601.66
2023-03-04T00:34:54.417Z,97601.66
2023-03-04T00:37:21.351Z,97601.47
2023-03-04T00:39:47.922Z,97600.72
2023-03-04T00:42:14.656Z,97602.50
2023-03-04T00:44:41.406Z,97594.91
2023-03-04T00:47:08.274Z,97601.56
2023-03-04T00:49:34.898Z,97599.38
2023-03-04T00:52:01.528Z,97602.41
2023-03-04T00:54:28.177Z,97605.13
2023-03-04T00:56:54.982Z,97602.19
2023-03-04T00:59:21.553Z,97596.78
2023-03-04T01:01:48.181Z,97604.69
2023-03-04T01:04:17.107Z,97601.25
2023-03-04T01:06:43.801Z,97594.41
2023-03-04T01:09:12.179Z,97593.97
2023-03-04T01:11:38.820Z,97602.63
2023-03-04T01:14:05.656Z,97600.22
2023-03-04T01:16:32.359Z,97601.47
2023-03-04T01:18:58.946Z,97597.28
2023-03-04T01:21:25.658Z,97595.84
2023-03-04T01:23:52.364Z,97588.78
2023-03-04T01:26:19.091Z,97592.00
2023-03-04T01:28:47.174Z,97587.09
2023-03-04T01:31:13.844Z,97586.38
2023-03-04T01:33:40.475Z,97586.91
2023-03-04T01:36:07.248Z,97585.22
2023-03-04T01:38:33.938Z,97580.88
2023-03-04T01:41:01.421Z,97585.56
2023-03-04T01:43:30.214Z,97576.50
2023-03-04T01:45:57.934Z,97573.06
2023-03-04T01:48:28.242Z,97572.88
2023-03-04T01:50:55.125Z,97579.50
2023-03-04T01:53:25.562Z,97567.97
2023-03-04T01:56:13.403Z,97568.28
2023-03-04T01:58:40.299Z,97564.63
2023-03-04T02:01:06.958Z,97563.72
2023-03-04T02:03:33.685Z,97564.94
2023-03-04T02:06:01.133Z,97563.47
2023-03-04T02:08:28.246Z,97559.13
2023-03-04T02:10:56.470Z,97557.16
2023-03-04T02:13:23.324Z,97554.22
2023-03-04T02:15:51.661Z,97551.13
2023-03-04T02:18:23.349Z,97548.19
2023-03-04T02:21:02.303Z,97552.66
2023-03-04T02:23:50.801Z,97553.16
2023-03-04T02:26:20.655Z,97552.97
2023-03-04T02:28:51.962Z,97552.78
2023-03-04T02:31:24.583Z,97552.03
2023-03-04T02:33:53.044Z,97557.75
2023-03-04T02:36:20.067Z,97554.09
2023-03-04T02:38:46.921Z,97549.22
2023-03-04T02:41:15.497Z,97551.19
2023-03-04T02:43:44.240Z,97550.47
2023-03-04T02:46:12.748Z,97549.75
2023-03-04T02:48:39.846Z,97557.66
2023-03-04T02:51:06.573Z,97544.63
2023-03-04T02:53:33.318Z,97542.44
2023-03-04T02:56:00.870Z,97545.69
2023-03-04T02:58:32.844Z,97539.31
2023-03-04T03:00:59.547Z,97546.72
2023-03-04T03:03:28.005Z,97541.09
2023-03-04T03:05:55.312Z,97541.41
2023-03-04T03:08:22.664Z,97546.06
2023-03-04T03:10:49.373Z,97539.00
2023-03-04T03:13:16.722Z,97543.66
2023-03-04T03:15:44.878Z,97540.03
2023-03-04T03:18:11.607Z,97537.88
2023-03-04T03:20:38.370Z,97534.19
2023-03-04T03:23:05.343Z,97528.59
2023-03-04T03:25:31.927Z,97534.00
2023-03-04T03:27:58.525Z,97535.22
2023-03-04T03:30:25.246Z,97540.44
2023-03-04T03:32:51.935Z,97540.72
2023-03-04T03:35:18.867Z,97544.69
2023-03-04T03:37:45.603Z,97549.16
2023-03-04T03:40:13.335Z,97553.09
2023-03-04T03:42:39.965Z,97550.41
2023-03-04T03:45:07.385Z,97554.31
2023-03-04T03:47:34.048Z,97550.91
2023-03-04T03:50:00.693Z,97552.88
2023-03-04T03:52:27.367Z,97555.38
2023-03-04T03:54:54.044Z,97552.97
2023-03-04T03:57:20.605Z,97552.03
2023-03-04T03:59:47.253Z,97547.13
2023-03-04T04:02:13.908Z,97550.34
2023-03-04T04:04:40.724Z,97546.19
2023-03-04T04:07:07.541Z,97550.13
2023-03-04T04:09:34.202Z,97552.59
2023-03-04T04:12:00.811Z,97556.56
2023-03-04T04:14:27.458Z,97551.69
2023-03-04T04:16:54.153Z,97548.25
2023-03-04T04:19:21.184Z,97550.22
2023-03-04T04:21:48.465Z,97543.34
2023-03-04T04:24:15.150Z,97548.75
2023-03-04T04:26:41.935Z,97549.25
2023-03-04T04:29:09.317Z,97555.19
2023-03-04T04:31:36.343Z,97555.72
2023-03-04T04:34:03.213Z,97562.34
2023-03-04T04:36:29.970Z,97552.78
2023-03-04T04:38:57.577Z,97557.47
2023-03-04T04:41:29.155Z,97568.97
2023-03-04T04:43:56.050Z,97566.28
2023-03-04T04:46:23.019Z,97558.91
2023-03-04T04:48:50.110Z,97573.66
2023-03-04T04:51:16.670Z,97572.94
2023-03-04T04:53:44.787Z,97568.06
2023-03-04T04:56:16.903Z,97571.25
2023-03-04T04:58:44.517Z,97567.81
2023-03-04T05:01:11.565Z,97569.06
2023-03-04T05:03:39.316Z,97563.66
2023-03-04T05:06:08.130Z,97557.53
2023-03-04T05:08:35.606Z,97564.19
2023-03-04T05:11:04.960Z,97562.94
2023-03-04T05:13:31.837Z,97568.34
2023-03-04T05:15:58.829Z,97563.47
2023-03-04T05:18:27.406Z,97563.47
2023-03-04T05:20:55.955Z,97561.47
2023-03-04T05:23:22.923Z,97560.03
2023-03-04T05:25:49.707Z,97565.44
2023-03-04T05:28:16.604Z,97565.44
2023-03-04T05:30:44.621Z,97561.25
2023-03-04T05:33:12.630Z,97563.94
2023-03-04T05:35:40.220Z,97565.19
2023-03-04T05:38:08.924Z,97561.78
2023-03-04T05:40:36.222Z,97559.78
2023-03-04T05:43:02.833Z,97561.25
2023-03-04T05:45:29.599Z,97562.50
2023-03-04T05:47:56.662Z,97566.44
2023-03-04T05:50:23.972Z,97560.13
2023-03-04T05:52:53.043Z,97557.91
2023-03-04T05:55:19.887Z,97563.31
2023-03-04T05:57:46.835Z,97559.88
2023-03-04T06:00:14.565Z,97561.84
2023-03-04T06:02:41.877Z,97567.97
2023-03-04T06:05:08.841Z,97566.00
2023-03-04T06:07:35.880Z,97571.19
2023-03-04T06:10:02.572Z,97574.41
2023-03-04T06:12:29.789Z,97579.59
2023-03-04T06:14:56.673Z,97584.78
2023-03-04T06:17:23.537Z,97586.03
2023-03-04T06:19:50.165Z,97598.78
2023-03-04T06:22:16.836Z,97591.41
2023-03-04T06:24:43.477Z,97589.94
2023-03-04T06:27:10.252Z,97593.88
2023-03-04T06:29:36.940Z,97599.28
2023-03-04T06:32:03.790Z,97592.94
2023-03-04T06:34:30.453Z,97590.25
2023-03-04T06:36:57.131Z,97590.75
2023-03-04T06:39:23.805Z,97594.19
2023-03-04T06:41:50.511Z,97589.28
2023-03-04T06:44:17.210Z,97596.66
2023-03-04T06:46:43.875Z,97607.97
2023-03-04T06:49:10.596Z,97607.97
2023-03-04T06:51:37.381Z,97609.94
2023-03-04T06:54:04.221Z,97619.28
2023-03-04T06:56:31.105Z,97621.75
2023-03-04T06:58:57.763Z,97618.84
2023-03-04T07:01:26.722Z,97625.47
2023-03-04T07:03:54.055Z,97629.41
2023-03-04T07:06:22.934Z,97646.09
2023-03-04T07:08:50.790Z,97637.56
2023-03-04T07:11:18.510Z,97636.84
2023-03-04T07:13:45.746Z,97645.66
2023-03-04T07:16:16.291Z,97644.84
2023-03-04T07:18:43.383Z,97655.59
2023-03-04T07:21:10.226Z,97655.28
2023-03-04T07:23:37.260Z,97652.41
2023-03-04T07:26:04.369Z,97651.03
2023-03-04T07:28:31.342Z,97643.72
2023-03-04T07:30:57.953Z,97646.47
2023-03-04T07:33:24.685Z,97641.06
2023-03-04T07:35:59.207Z,97640.63
2023-03-04T07:38:25.923Z,97642.50
2023-03-04T07:40:57.518Z,97645.25
2023-03-04T07:43:24.402Z,97645.91
2023-03-04T07:45:51.161Z,97645.63
2023-03-04T07:48:17.936Z,97656.34
2023-03-04T07:50:44.575Z,97660.66
2023-03-04T07:53:11.296Z,97655.97
2023-03-04T07:55:37.905Z,97653.91
2023-03-04T07:58:04.933Z,97658.59
2023-03-04T08:00:31.571Z,97655.78
2023-03-04T08:02:58.289Z,97660.13
2023-03-04T08:05:24.972Z,97655.75
2023-03-04T08:07:51.631Z,97660.09
2023-03-04T08:10:18.369Z,97672.28
2023-03-04T08:12:45.096Z,97664.81
2023-03-04T08:15:12.014Z,97663.94
2023-03-04T08:17:38.903Z,97670.16
2023-03-04T08:20:06.092Z,97662.06
2023-03-04T08:22:32.790Z,97661.31
2023-03-04T08:24:59.344Z,97666.72
2023-03-04T08:27:26.132Z,97665.63
2023-03-04T08:29:52.746Z,97659.69
2023-03-04T08:32:19.577Z,97666.13
2023-03-04T08:34:46.373Z,97651.75
2023-03-04T08:37:13.066Z,97657.81
2023-03-04T08:39:39.702Z,97659.22
2023-03-04T08:42:06.401Z,97664.44
2023-03-04T08:44:33.011Z,97668.97
2023-03-04T08:46:59.764Z,97671.81
2023-03-04T08:49:26.472Z,97672.25
2023-03-04T08:51:53.164Z,97685.81
2023-03-04T08:54:19.856Z,97694.06
2023-03-04T08:56:47.201Z,97698.63
2023-03-04T08:59:13.817Z,97696.63
2023-03-04T09:01:40.508Z,97694.72
2023-03-04T09:04:07.353Z,97695.69
2023-03-04T09:06:34.121Z,97696.09
2023-03-04T09:09:00.927Z,97693.94
2023-03-04T09:11:27.810Z,97692.59
2023-03-04T09:13:54.251Z,97693.94
2023-03-04T09:16:21.478Z,97689.22
2023-03-04T09:18:48.100Z,97693.91
2023-03-04T09:21:14.926Z,97690.50
2023-03-04T09:23:41.688Z,97691.22
2023-03-04T09:26:22.106Z,97691.53
2023-03-04T09:28:52.918Z,97674.13
2023-03-04T09:31:19.842Z,97681.75
2023-03-04T09:33:46.674Z,97679.50
2023-03-04T09:36:14.813Z,97670.94
2023-03-04T09:38:42.070Z,97679.53
2023-03-04T09:41:27.446Z,97679.16
2023-03-04T09:43:54.590Z,97679.91
2023-03-04T09:46:35.624Z,97666.47
2023-03-04T09:49:02.445Z,97686.50
2023-03-04T09:51:45.948Z,97693.28
2023-03-04T09:54:29.059Z,97691.72
2023-03-04T09:57:28.653Z,97690.25
2023-03-04T09:59:59.396Z,97694.22
2023-03-04T10:02:35.537Z,97693.00
2023-03-04T10:05:05.305Z,97694.03
2023-03-04T10:07:36.561Z,97686.09
2023-03-04T10:10:07.774Z,97688.47
2023-03-04T10:12:36.468Z,97692.13
2023-03-04T10:15:21.992Z,97693.72
2023-03-04T10:17:51.464Z,97693.28
2023-03-04T10:20:24.330Z,97692.78
2023-03-04T10:23:05.680Z,97694.09
2023-03-04T10:25:33.729Z,97682.78
2023-03-04T10:28:17.465Z,97683.81
2023-03-04T10:31:04.550Z,97683.50
2023-03-04T10:33:35.133Z,97673.63
2023-03-04T10:36:03.731Z,97673.50
2023-03-04T10:38:35.557Z,97664.00
2023-03-04T10:41:12.887Z,97666.00
2023-03-04T10:43:39.617Z,97666.31
2023-03-04T10:46:06.293Z,97662.44
2023-03-04T10:48:32.987Z,97665.16
2023-03-04T10:51:21.274Z,97667.97
2023-03-04T10:53:51.639Z,97668.19
2023-03-04T10:56:39.541Z,97675.56
2023-03-04T10:59:26.724Z,97666.00
2023-03-04T11:01:54.578Z,97660.59
2023-03-04T11:04:25.576Z,97657.59
2023-03-04T11:06:52.789Z,97649.75
2023-03-04T11:09:32.587Z,97655.50
2023-03-04T11:12:01.368Z,97647.47
2023-03-04T11:14:31.691Z,97645.41
2023-03-04T11:17:04.013Z,97646.94
2023-03-04T11:19:39.368Z,97642.03
2023-03-04T11:22:06.525Z,97645.13
2023-03-04T11:24:34.902Z,97647.84
2023-03-04T11:27:16.320Z,97642.66
2023-03-04T11:29:52.627Z,97645.84
2023-03-04T11:32:26.198Z,97635.25
2023-03-04T11:35:06.749Z,97634.16
2023-03-04T11:38:15.353Z,97629.53
2023-03-04T11:40:59.741Z,97628.56
2023-03-04T11:43:37.926Z,97629.19
2023-03-04T11:46:41.219Z,97620.53
2023-03-04T11:49:34.938Z,97620.81
2023-03-04T11:52:13.765Z,97616.78
2023-03-04T11:55:11.756Z,97607.53
2023-03-04T11:57:52.003Z,97607.31
2023-03-04T12:00:30.646Z,97607.88
2023-03-04T12:03:09.904Z,97608.13
2023-03-04T12:05:48.046Z,97609.97
2023-03-04T12:08:32.065Z,97602.75
2023-03-04T12:11:21.569Z,97595.75
2023-03-04T12:13:53.956Z,97601.44
2023-03-04T12:16:38.866Z,97600.56
2023-03-04T12:19:12.984Z,97594.63
2023-03-04T12:21:52.068Z,97585.69
2023-03-04T12:24:27.745Z,97584.56
2023-03-04T12:27:16.108Z,97577.38
2023-03-04T12:30:05.563Z,97575.44
2023-03-04T12:33:01.778Z,97577.34
2023-03-04T12:35:38.710Z,97572.94
2023-03-04T12:38:29.422Z,97572.28
2023-03-04T12:41:17.578Z,97566.34
2023-03-04T12:43:54.373Z,97563.69
2023-03-04T12:46:38.715Z,97572.78
2023-03-04T12:49:30.062Z,97570.28
2023-03-04T12:52:21.418Z,97569.41
2023-03-04T12:54:52.790Z,97567.22
2023-03-04T12:57:23.132Z,97555.09
2023-03-04T13:00:17.763Z,97553.53
2023-03-04T13:02:54.102Z,97556.81
2023-03-04T13:05:30.084Z,97556.81
2023-03-04T13:08:04.941Z,97552.88
2023-03-04T13:10:31.686Z,97535.47
2023-03-04T13:13:00.021Z,97552.53
2023-03-04T13:15:31.061Z,97546.81
2023-03-04T13:18:22.484Z,97544.72
2023-03-04T13:21:25.342Z,97533.16
2023-03-04T13:23:53.454Z,97539.56
2023-03-04T13:26:28.549Z,97543.50
2023-03-04T13:29:10.542Z,97540.22
2023-03-04T13:32:22.476Z,97540.09
2023-03-04T13:34:54.066Z,97542.22
2023-03-04T13:37:29.259Z,97543.88
2023-03-04T13:40:20.825Z,97533.84
2023-03-04T13:42:47.991Z,97523.03
2023-03-04T13:45:34.337Z,97534.97
2023-03-04T13:48:02.237Z,97529.72
2023-03-04T13:50:38.349Z,97521.41
2023-03-04T13:53:31.078Z,97527.53
2023-03-04T13:56:09.417Z,97524.66
2023-03-04T13:58:36.311Z,97517.03
2023-03-04T14:01:03.675Z,97528.94
2023-03-04T14:03:31.891Z,97520.63
2023-03-04T14:06:11.587Z,97516.34
2023-03-04T14:08:38.705Z,97522.34
2023-03-04T14:11:05.376Z,97519.59
2023-03-04T14:13:32.020Z,97522.66
2023-03-04T14:15:59.925Z,97518.84
2023-03-04T14:18:28.131Z,97523.03
2023-03-04T14:20:58.986Z,97531.19
2023-03-04T14:23:34.185Z,97517.16
2023-03-04T14:26:18.717Z,97520.38
2023-03-04T14:28:51.674Z,97514.28
2023-03-04T14:31:21.174Z,97510.72
2023-03-04T14:33:50.318Z,97513.09
2023-03-04T14:36:22.174Z,97511.81
2023-03-04T14:38:53.330Z,97509.84
2023-03-04T14:41:25.652Z,97516.69
2023-03-04T14:44:08.615Z,97519.63
2023-03-04T14:47:06.019Z,97513.06
2023-03-04T14:49:35.957Z,97511.09
2023-03-04T14:52:03.053Z,97521.22
2023-03-04T14:54:41.115Z,97515.94
2023-03-04T14:57:26.006Z,97509.44
2023-03-04T14:59:53.750Z,97516.34
2023-03-04T15:02:23.295Z,97521.97
2023-03-04T15:04:51.298Z,97508.91
2023-03-04T15:07:31.871Z,97515.78
2023-03-04T15:09:59.104Z,97513.44
2023-03-04T15:12:30.690Z,97513.44
2023-03-04T15:15:03.086Z,97507.44
2023-03-04T15:17:38.342Z,97511.78
2023-03-04T15:20:07.764Z,97510.69
2023-03-04T15:23:00.822Z,97508.81
2023-03-04T15:25:27.784Z,97508.19
2023-03-04T15:27:54.619Z,97500.56
2023-03-04T15:30:27.536Z,97505.00
2023-03-04T15:32:57.883Z,97500.06
2023-03-04T15:35:27.359Z,97507.06
2023-03-04T15:37:55.531Z,97507.81
2023-03-04T15:40:27.518Z,97504.59
2023-03-04T15:42:55.344Z,97506.06
2023-03-04T15:45:24.925Z,97502.00
2023-03-04T15:47:51.815Z,97501.66
2023-03-04T15:50:19.417Z,97495.75
2023-03-04T15:52:46.624Z,97500.00
2023-03-04T15:55:21.082Z,97494.56
2023-03-04T15:57:50.304Z,97499.41
2023-03-04T16:00:17.071Z,97496.88
2023-03-04T16:02:43.888Z,97497.13
2023-03-04T16:05:10.831Z,97496.41
2023-03-04T16:07:38.590Z,97500.25
2023-03-04T16:10:27.711Z,97501.19
2023-03-04T16:12:54.944Z,97488.69
2023-03-04T16:15:30.860Z,97496.09
2023-03-04T16:17:57.945Z,97494.03
2023-03-04T16:20:28.714Z,97492.31
2023-03-04T16:22:56.789Z,97489.09
2023-03-04T16:25:24.788Z,97493.72
2023-03-04T16:27:52.940Z,97503.16
2023-03-04T16:30:25.372Z,97505.59
2023-03-04T16:32:52.631Z,97507.25
2023-03-04T16:35:19.843Z,97500.53
2023-03-04T16:37:47.009Z,97502.19
2023-03-04T16:40:14.578Z,97503.66
2023-03-04T16:42:41.280Z,97502.00
2023-03-04T16:45:21.427Z,97503.88
2023-03-04T16:47:48.120Z,97515.75
2023-03-04T16:50:20.010Z,97517.41
2023-03-04T16:52:48.590Z,97510.22
2023-03-04T16:55:21.001Z,97506.16
2023-03-04T16:57:47.783Z,97511.34
2023-03-04T17:00:17.351Z,97512.97
2023-03-04T17:02:44.721Z,97514.31
2023-03-04T17:05:22.250Z,97512.66
2023-03-04T17:07:49.064Z,97511.78
2023-03-04T17:10:16.667Z,97508.91
2023-03-04T17:12:43.931Z,97503.94
2023-03-04T17:15:12.168Z,97517.00
2023-03-04T17:17:39.354Z,97518.81
2023-03-04T17:20:07.131Z,97516.72
2023-03-04T17:22:34.104Z,97511.53
2023-03-04T17:25:02.768Z,97514.53
2023-03-04T17:27:30.079Z,97519.69
2023-03-04T17:29:56.690Z,97515.16
2023-03-04T17:32:23.692Z,97513.47
2023-03-04T17:34:50.462Z,97532.09
2023-03-04T17:37:17.351Z,97528.22
2023-03-04T17:39:44.000Z,97524.97
2023-03-04T17:42:10.697Z,97527.16
2023-03-04T17:44:37.388Z,97536.69
2023-03-04T17:47:04.333Z,97536.53
2023-03-04T17:49:30.999Z,97532.22
2023-03-04T17:51:57.715Z,97539.06
2023-03-04T17:54:24.334Z,97533.16
2023-03-04T17:56:51.059Z,97534.00
2023-03-04T17:59:17.991Z,97537.13
2023-03-04T18:01:45.552Z,97542.00
2023-03-04T18:04:13.416Z,97544.19
2023-03-04T18:06:40.404Z,97547.56
2023-03-04T18:09:07.101Z,97551.41
2023-03-04T18:11:36.680Z,97546.94
2023-03-04T18:14:03.374Z,97548.63
2023-03-04T18:16:30.142Z,97548.13
2023-03-04T18:18:58.550Z,97551.84
2023-03-04T18:21:26.366Z,97555.34
2023-03-04T18:23:53.354Z,97550.72
2023-03-04T18:26:23.366Z,97547.84
2023-03-04T18:28:54.529Z,97546.22
2023-03-04T18:31:22.373Z,97543.84
2023-03-04T18:33:49.254Z,97550.13
2023-03-04T18:36:16.140Z,97548.97
2023-03-04T18:38:42.969Z,97541.50
2023-03-04T18:41:12.825Z,97543.91
2023-03-04T18:43:39.625Z,97541.09
2023-03-04T18:46:27.156Z,97540.06
2023-03-04T18:48:56.024Z,97539.25
2023-03-04T18:51:22.665Z,97538.94
2023-03-04T18:53:49.412Z,97542.06
2023-03-04T18:56:20.350Z,97544.97
2023-03-04T18:58:47.886Z,97539.97
2023-03-04T19:01:16.990Z,97536.97
2023-03-04T19:03:44.552Z,97549.47
2023-03-04T19:06:11.288Z,97543.00
2023-03-04T19:08:38.305Z,97532.41
2023-03-04T19:11:06.277Z,97538.00
2023-03-04T19:13:33.498Z,97532.78
2023-03-04T19:16:00.155Z,97533.00
2023-03-04T19:18:28.875Z,97534.66
2023-03-04T19:20:55.576Z,97534.88
2023-03-04T19:23:22.265Z,97535.09
2023-03-04T19:25:48.949Z,97540.19
2023-03-04T19:28:15.636Z,97536.94
2023-03-04T19:30:42.413Z,97537.16
2023-03-04T19:33:10.366Z,97531.97
2023-03-04T19:35:44.683Z,97531.44
2023-03-04T19:38:11.986Z,97531.63
2023-03-04T19:40:40.408Z,97534.56
2023-03-04T19:43:08.016Z,97533.50
2023-03-04T19:45:35.092Z,97534.97
2023-03-04T19:48:03.157Z,97538.59
2023-03-04T19:50:30.381Z,97538.78
2023-03-04T19:52:57.240Z,97531.63
2023-03-04T19:55:24.266Z,97533.78
2023-03-04T19:57:50.966Z,97537.44
2023-03-04T20:00:18.964Z,97533.47
2023-03-04T20:02:47.858Z,97531.19
2023-03-04T20:05:14.570Z,97530.66
2023-03-04T20:07:41.471Z,97531.38
2023-03-04T20:10:08.927Z,97535.00
2023-03-04T20:12:36.300Z,97527.09
2023-03-04T20:15:06.113Z,97526.56
2023-03-04T20:17:32.725Z,97530.22
2023-03-04T20:19:59.382Z,97526.97
2023-03-04T20:22:26.167Z,97526.44
2023-03-04T20:24:54.878Z,97530.09
2023-03-04T20:27:21.740Z,97531.00
2023-03-04T20:29:49.174Z,97528.53
2023-03-04T20:32:15.937Z,97531.44
2023-03-04T20:34:42.656Z,97535.06
2023-03-04T20:37:09.304Z,97537.97
2023-03-04T20:39:35.939Z,97535.47
2023-03-04T20:42:03.817Z,97543.06
2023-03-04T20:44:30.507Z,97542.00
2023-03-04T20:46:57.447Z,97545.44
2023-03-04T20:49:26.714Z,97547.63
2023-03-04T20:51:56.113Z,97553.25
2023-03-04T20:54:22.932Z,97549.28
2023-03-04T20:56:49.639Z,97546.78
2023-03-04T20:59:16.565Z,97550.97
2023-03-04T21:01:45.270Z,97547.00
2023-03-04T21:04:12.177Z,97553.84
2023-03-04T21:06:39.628Z,97554.03
2023-03-04T21:09:09.319Z,97556.25
2023-03-04T21:11:40.424Z,97554.25
2023-03-04T21:14:22.154Z,97551.75
2023-03-04T21:16:51.131Z,97550.47
2023-03-04T21:19:23.353Z,97546.50
2023-03-04T21:21:50.935Z,97535.16
2023-03-04T21:24:20.667Z,97534.63
2023-03-04T21:26:48.059Z,97534.09
2023-03-04T21:29:15.938Z,97530.19
2023-03-04T21:31:45.456Z,97534.81
2023-03-04T21:34:35.498Z,97523.50
2023-03-04T21:37:03.030Z,97529.13
2023-03-04T21:39:30.294Z,97517.53
2023-03-04T21:41:58.542Z,97525.13
2023-03-04T21:44:33.323Z,97531.28
2023-03-04T21:47:00.838Z,97525.34
2023-03-04T21:49:28.180Z,97522.66
2023-03-04T21:51:54.862Z,97515.44
2023-03-04T21:54:21.642Z,97519.59
2023-03-04T21:56:49.483Z,97515.44
2023-03-04T21:59:17.579Z,97512.00
2023-03-04T22:01:44.563Z,97499.16
2023-03-04T22:04:11.233Z,97500.63
2023-03-04T22:06:39.946Z,97497.91
2023-03-04T22:09:06.977Z,97497.19
2023-03-04T22:11:33.734Z,97496.66
2023-03-04T22:14:02.002Z,97495.91
2023-03-04T22:16:28.928Z,97493.22
2023-03-04T22:18:55.727Z,97496.66
2023-03-04T22:21:22.867Z,97493.22
2023-03-04T22:23:49.483Z,97482.59
2023-03-04T22:26:29.944Z,97480.41
2023-03-04T22:28:56.590Z,97476.63
2023-03-04T22:31:30.180Z,97475.19
2023-03-04T22:34:01.603Z,97471.75
2023-03-04T22:36:32.981Z,97477.16
2023-03-04T22:39:01.191Z,97453.31
2023-03-04T22:41:29.011Z,97469.03
2023-03-04T22:43:55.868Z,97467.78
2023-03-04T22:46:25.690Z,97458.19
2023-03-04T22:48:53.983Z,97464.34
2023-03-04T22:51:21.073Z,97465.06
2023-03-04T22:53:48.722Z,97465.78
2023-03-04T22:56:15.644Z,97461.09
2023-03-04T22:58:44.386Z,97468.69
2023-03-04T23:01:12.253Z,97452.97
2023-03-04T23:03:40.300Z,97455.47
2023-03-04T23:06:16.902Z,97461.44
2023-03-04T23:08:45.550Z,97460.91
2023-03-04T23:11:19.361Z,97455.47
2023-03-04T23:13:46.132Z,97462.34
2023-03-04T23:16:13.740Z,97452.97
2023-03-04T23:18:41.831Z,97453.69
2023-03-04T23:21:14.620Z,97458.38
2023-03-04T23:23:41.626Z,97459.81
2023-03-04T23:26:20.240Z,97456.38
2023-03-04T23:28:47.046Z,97454.63
2023-03-04T23:31:17.233Z,97452.41
2023-03-04T23:33:45.758Z,97445.75
2023-03-04T23:36:15.486Z,97446.50
2023-03-04T23:38:44.103Z,97441.78
2023-03-04T23:41:12.962Z,97441.78
2023-03-04T23:43:39.702Z,97430.22
2023-03-04T23:46:09.170Z,97428.25
2023-03-04T23:48:35.863Z,97421.38
2023-03-04T23:51:02.495Z,97428.97
2023-03-04T23:53:29.519Z,97428.25
2023-03-04T23:55:56.238Z,97420.84
2023-03-04T23:58:23.003Z,97428.41
